createdAt,value
2023-02-09T00:00:05.015Z,24.12
2023-02-09T00:05:01.253Z,26.4
2023-02-09T00:09:57.510Z,28.639999999999997
2023-02-09T00:14:53.793Z,38.04
2023-02-09T00:19:50.054Z,32.5
2023-02-09T00:24:46.288Z,34.36
2023-02-09T00:29:45.526Z,41.48
2023-02-09T00:34:41.796Z,44.86
2023-02-09T00:39:38.087Z,35.040000000000006
2023-02-09T00:44:34.292Z,34.3
2023-02-09T00:49:30.576Z,32.92
2023-02-09T00:54:26.856Z,37.739999999999995
2023-02-09T00:59:23.104Z,37.67999999999999
2023-02-09T01:04:19.366Z,36.120000000000005
2023-02-09T01:09:15.632Z,40.2
2023-02-09T01:14:11.882Z,41.39999999999999
2023-02-09T01:19:11.116Z,41.96
2023-02-09T01:24:08.348Z,43.059999999999995
2023-02-09T01:29:04.636Z,42.44
2023-02-09T01:34:01.902Z,40.64
2023-02-09T01:38:59.176Z,42.17999999999999
2023-02-09T01:43:57.405Z,41.519999999999996
2023-02-09T01:48:59.665Z,40.160000000000004
2023-02-09T01:53:55.911Z,40.94
2023-02-09T01:58:53.179Z,39.28
2023-02-09T02:03:52.404Z,36.88
2023-02-09T02:08:54.695Z,28.540000000000003
2023-02-09T02:13:50.907Z,27.080000000000002
2023-02-09T02:19:01.122Z,28.72
2023-02-09T02:24:09.372Z,27.339999999999996
2023-02-09T02:29:22.548Z,27.080000000000002
2023-02-09T02:34:25.802Z,24.880000000000003
2023-02-09T02:39:29.043Z,23.04
2023-02-09T02:44:30.320Z,25.880000000000003
2023-02-09T02:49:31.571Z,24.139999999999997
2023-02-09T02:54:30.818Z,24.18
2023-02-09T02:59:31.060Z,21.919999999999998
2023-02-09T03:04:29.353Z,19.94
2023-02-09T03:09:27.555Z,21.860000000000003
2023-02-09T03:14:40.788Z,23.199999999999996
2023-02-09T03:19:46.043Z,20.8
2023-02-09T03:24:50.269Z,19.7
2023-02-09T03:29:49.525Z,19.979999999999997
2023-02-09T03:34:45.788Z,21.46
2023-02-09T03:39:42.019Z,15.1
2023-02-09T03:44:38.317Z,13.559999999999999
2023-02-09T03:49:35.580Z,16
2023-02-09T03:54:32.835Z,15.360000000000003
2023-02-09T03:59:29.091Z,16.060000000000002
2023-02-09T04:04:25.357Z,16.080000000000002
2023-02-09T04:09:21.608Z,16.900000000000002
2023-02-09T04:14:17.833Z,17.619999999999997
2023-02-09T04:19:14.068Z,17.34
2023-02-09T04:24:10.367Z,18.78
2023-02-09T04:29:06.660Z,20.4
2023-02-09T04:34:02.874Z,18.84
2023-02-09T04:38:59.132Z,19.36
2023-02-09T04:43:55.407Z,21.14
2023-02-09T04:48:52.659Z,19.360000000000003
2023-02-09T04:53:48.940Z,20.779999999999998
2023-02-09T04:58:46.192Z,15.6
2023-02-09T05:03:42.545Z,15.8
2023-02-09T05:08:38.725Z,20.240000000000002
2023-02-09T05:13:35.943Z,18.14
2023-02-09T05:18:32.224Z,18.96
2023-02-09T05:23:28.489Z,23.840000000000003
2023-02-09T05:28:24.818Z,24.619999999999997
2023-02-09T05:33:20.978Z,29.02
2023-02-09T05:38:17.247Z,27.440000000000005
2023-02-09T05:43:13.529Z,39.34
2023-02-09T05:48:09.810Z,33.67999999999999
2023-02-09T05:53:06.041Z,36.86
2023-02-09T05:58:02.322Z,34.3
2023-02-09T06:02:58.693Z,36.5
2023-02-09T06:07:54.771Z,37.08
2023-02-09T06:12:51.062Z,56.019999999999996
2023-02-09T06:17:47.318Z,46.66
2023-02-09T06:22:43.590Z,46.6
2023-02-09T06:27:39.870Z,41.72
2023-02-09T06:32:36.077Z,38.58
2023-02-09T06:37:32.378Z,40.3
2023-02-09T06:42:29.111Z,73.78
2023-02-09T06:47:24.860Z,57.6
2023-02-09T06:52:21.163Z,42.7
2023-02-09T06:57:17.442Z,35.72
2023-02-09T07:02:13.644Z,31.740000000000002
2023-02-09T07:07:09.884Z,39.54
2023-02-09T07:12:06.169Z,35.42
2023-02-09T07:17:02.424Z,23.68
2023-02-09T07:21:57.700Z,20.779999999999998
2023-02-09T07:26:53.952Z,17.46
2023-02-09T07:31:54.279Z,19.14
2023-02-09T07:36:51.456Z,16.6
2023-02-09T07:41:50.730Z,15.4
2023-02-09T07:46:47.980Z,15.1
2023-02-09T07:51:44.222Z,15.460000000000003
2023-02-09T07:56:40.484Z,14.919999999999998
2023-02-09T08:01:37.804Z,15.3
2023-02-09T08:06:42.438Z,11.86
2023-02-09T08:11:44.760Z,12.860000000000003
2023-02-09T08:16:43.479Z,12.86
2023-02-09T08:21:42.776Z,12.88
2023-02-09T08:26:40.007Z,8.5
2023-02-09T08:31:36.326Z,9.4
2023-02-09T08:36:32.487Z,6.779999999999999
2023-02-09T08:41:28.767Z,8.080000000000002
2023-02-09T08:46:25.181Z,9.540000000000001
2023-02-09T08:51:21.314Z,9.06
2023-02-09T08:56:17.533Z,6.460000000000001
2023-02-09T09:01:13.893Z,7.88
2023-02-09T09:06:10.047Z,6.720000000000001
2023-02-09T09:11:07.389Z,7.9
2023-02-09T09:16:05.174Z,9.54
2023-02-09T09:21:01.866Z,10.120000000000001
2023-02-09T09:26:00.125Z,6.68
2023-02-09T09:30:56.376Z,7.779999999999999
2023-02-09T09:35:52.619Z,8.580000000000002
2023-02-09T09:40:51.917Z,11.58
2023-02-09T09:45:51.201Z,10.239999999999998
2023-02-09T09:50:52.350Z,10.879999999999999
2023-02-09T09:55:55.652Z,9.24
2023-02-09T10:00:52.892Z,10.66
2023-02-09T10:05:52.082Z,8.319999999999999
2023-02-09T10:10:56.364Z,7.32
2023-02-09T10:15:58.611Z,10
2023-02-09T10:21:04.884Z,8.32
2023-02-09T10:26:20.070Z,7.26
2023-02-09T10:31:20.411Z,9.36
2023-02-09T10:36:24.656Z,63.5
2023-02-09T10:41:21.829Z,10.319999999999999
2023-02-09T10:46:20.100Z,16.72
2023-02-09T10:51:23.304Z,23.340000000000003
2023-02-09T10:56:21.537Z,10.139999999999999
2023-02-09T11:01:22.883Z,17.56
2023-02-09T11:06:19.090Z,7.94
2023-02-09T11:11:26.266Z,19.339999999999996
2023-02-09T11:16:38.509Z,12.8
2023-02-09T11:21:46.745Z,7.42
2023-02-09T11:26:49.957Z,12.34
2023-02-09T11:31:59.286Z,13.639999999999997
2023-02-09T11:37:07.457Z,14.079999999999998
2023-02-09T11:42:12.685Z,11.08
2023-02-09T11:47:11.923Z,16.96
2023-02-09T11:52:14.147Z,10.7
2023-02-09T11:57:15.417Z,9.18
2023-02-09T12:02:22.806Z,14.64
2023-02-09T12:07:25.860Z,13
2023-02-09T12:12:33.121Z,12.780000000000001
2023-02-09T12:17:39.325Z,11.319999999999999
2023-02-09T12:22:53.570Z,9.34
2023-02-09T12:27:59.832Z,16.220000000000002
2023-02-09T12:33:02.056Z,9.34
2023-02-09T12:38:03.297Z,9.4
2023-02-09T12:43:10.514Z,9.72
2023-02-09T12:48:16.779Z,10.36
2023-02-09T12:53:28.024Z,10.819999999999999
2023-02-09T12:58:34.220Z,9.02
2023-02-09T13:03:41.491Z,13.040000000000001
2023-02-09T13:13:52.952Z,74.78
2023-02-09T13:18:55.160Z,18.740000000000002
2023-02-09T13:24:00.404Z,132.95999999999998
2023-02-09T13:29:19.316Z,57.1
2023-02-09T13:34:21.833Z,67.92
2023-02-09T13:39:22.138Z,41.9
2023-02-09T13:44:19.371Z,17.759999999999998
2023-02-09T13:49:17.616Z,12.7
2023-02-09T13:54:19.834Z,14
2023-02-09T13:59:16.122Z,18.06
2023-02-09T14:04:21.392Z,16.06
2023-02-09T14:09:20.584Z,10.959999999999999
2023-02-09T14:14:22.914Z,14.780000000000001
2023-02-09T14:19:25.178Z,11.12
2023-02-09T14:24:41.304Z,15.26
2023-02-09T14:29:45.540Z,19.42
2023-02-09T14:34:51.763Z,16.22
2023-02-09T14:39:53.043Z,12.68
2023-02-09T14:44:54.324Z,10.9
2023-02-09T14:49:55.547Z,11.379999999999999
2023-02-09T14:54:57.749Z,12.76
2023-02-09T14:59:55.042Z,12.179999999999998
2023-02-09T15:04:55.257Z,11.540000000000001
2023-02-09T15:10:00.555Z,11.879999999999999
2023-02-09T15:15:00.769Z,19.9
2023-02-09T15:20:01.056Z,56.94
2023-02-09T15:25:01.310Z,14.36
2023-02-09T15:30:04.847Z,19.78
2023-02-09T15:35:04.785Z,23.24
2023-02-09T15:40:10.989Z,82.67999999999999
2023-02-09T15:45:16.197Z,202.32
2023-02-09T15:50:16.498Z,279.4
2023-02-09T15:55:16.728Z,410.0400000000001
2023-02-09T16:00:17.972Z,211.38000000000002
2023-02-09T16:05:14.226Z,168.3
2023-02-09T16:10:18.449Z,69.94000000000001
2023-02-09T16:15:15.747Z,100.18
2023-02-09T16:20:13.000Z,148.28
2023-02-09T16:25:16.188Z,169.92
2023-02-09T16:30:17.532Z,107.28
2023-02-09T16:35:18.724Z,99.11999999999999
2023-02-09T16:40:22.969Z,122.53999999999999
2023-02-09T16:45:23.343Z,61.46
2023-02-09T16:50:23.485Z,54.54
2023-02-09T16:55:26.720Z,69.82000000000001
2023-02-09T17:00:27.953Z,119.04
2023-02-09T17:05:25.185Z,163.5
2023-02-09T17:10:27.509Z,157.26
2023-02-09T17:15:30.775Z,126.21999999999998
2023-02-09T17:20:30.963Z,108.67999999999999
2023-02-09T17:25:27.269Z,97.9
2023-02-09T17:30:23.488Z,133.58
2023-02-09T17:35:38.256Z,119.78000000000002
2023-02-09T17:40:21.977Z,74.78
2023-02-09T17:45:19.333Z,82.97999999999999
2023-02-09T17:50:15.538Z,99.3
2023-02-09T17:55:17.720Z,106.84
2023-02-09T18:00:15.001Z,126.25999999999999
2023-02-09T18:05:15.240Z,134.5
2023-02-09T18:10:11.500Z,142.5
2023-02-09T18:15:12.768Z,162.64000000000001
2023-02-09T18:20:14.008Z,126.83999999999999
2023-02-09T18:25:14.243Z,102.06000000000002
2023-02-09T18:30:10.505Z,101.82000000000001
2023-02-09T18:35:07.754Z,99.75999999999999
2023-02-09T18:40:04.017Z,96.75999999999999
2023-02-09T18:45:00.288Z,73.53999999999999
2023-02-09T18:50:00.526Z,78.03999999999999
2023-02-09T18:54:56.766Z,100.6
2023-02-09T18:59:53.112Z,104.88000000000002
2023-02-09T19:04:50.310Z,100.68
2023-02-09T19:09:46.560Z,101.92
2023-02-09T19:14:44.818Z,105.62
2023-02-09T19:19:41.085Z,109.75999999999999
2023-02-09T19:24:37.338Z,110.17999999999999
2023-02-09T19:29:38.567Z,123.52000000000001
2023-02-09T19:34:38.835Z,130.94
2023-02-09T19:39:35.199Z,121.28
2023-02-09T19:44:31.368Z,119.62
2023-02-09T19:49:27.616Z,129.56
2023-02-09T19:54:23.858Z,164.48
2023-02-09T19:59:20.151Z,110.83999999999999
2023-02-09T20:04:16.410Z,113.42
2023-02-09T20:09:12.624Z,96.3
2023-02-09T20:14:08.934Z,76.34
2023-02-09T20:19:05.178Z,87.41999999999999
2023-02-09T20:24:01.402Z,120
2023-02-09T20:28:58.734Z,160.42000000000002
2023-02-09T20:33:54.990Z,113.17999999999999
2023-02-09T20:38:50.182Z,112.92
2023-02-09T20:43:46.463Z,129.28000000000003
2023-02-09T20:48:42.712Z,132.82
2023-02-09T20:53:38.993Z,128.83999999999997
2023-02-09T20:58:36.223Z,131.74
2023-02-09T21:03:31.543Z,126.48000000000002
2023-02-09T21:08:27.770Z,115.16
2023-02-09T21:13:24.008Z,117.92
2023-02-09T21:18:20.282Z,130.12
2023-02-09T21:23:16.549Z,92.12
2023-02-09T21:28:12.862Z,76.78
2023-02-09T21:33:11.034Z,87.34
2023-02-09T21:38:07.345Z,67.84
2023-02-09T21:43:03.559Z,66.5
2023-02-09T21:48:00.795Z,83.8
2023-02-09T21:52:57.139Z,89.86
2023-02-09T21:57:53.347Z,69.58
2023-02-09T22:02:51.570Z,108.4
2023-02-09T22:07:48.865Z,125.67999999999999
2023-02-09T22:12:45.133Z,130.42000000000002
2023-02-09T22:17:41.357Z,150.82
2023-02-09T22:22:37.664Z,119.71999999999998
2023-02-09T22:27:33.893Z,131.26
2023-02-09T22:32:34.228Z,133.42000000000002
2023-02-09T22:37:30.400Z,113.64000000000001
2023-02-09T22:42:27.637Z,142.12
2023-02-09T22:47:27.897Z,123.28
2023-02-09T22:52:29.134Z,100.24
2023-02-09T22:57:29.393Z,94.18
2023-02-09T23:02:29.706Z,77.58
2023-02-09T23:07:29.912Z,40.959999999999994
2023-02-09T23:12:30.184Z,42.9
2023-02-09T23:17:31.411Z,71.24000000000001
2023-02-09T23:22:31.672Z,45.12
2023-02-09T23:27:27.893Z,36.1
2023-02-09T23:32:24.205Z,31.339999999999996
2023-02-09T23:37:36.716Z,28.54
2023-02-09T23:42:21.670Z,25.919999999999998
2023-02-09T23:47:17.910Z,24.479999999999997
2023-02-09T23:52:15.224Z,25.160000000000004
2023-02-09T23:57:11.444Z,24.740000000000002
